• Join FlightAware (Why Join?)
  • Login
  • US Flag 
04:38AM EST


 

Airport Tracker/Info


-or-


 

Live Flight TrackerFlight Track Log ✈ DAL95 ✈ 14-Apr-2013 ✈ KJFK - KDTW

Flight Track Log - Related Links

Times and Time Zones

All times are in EDT time to prevent confusion due to time zone crossing. See the DAL95 flight status page for this flight to view local times or setup timezone preferences in your user account.

Time Position Orientation Groundspeed Altitude Reporting Facility
EDT Latitude Longitude Course Direction KTS MPH feet Rate Location/Type
04:57PM 40.6167 -73.8667 327° Northwest 213 245 3,600  Level New York TRACON
04:58PM 40.5500 -73.8167 150° Southeast 262 302 6,900 2,880 Climbing New York TRACON
04:59PM 40.5667 -73.7333 75° East 290 334 9,400 3,000 Climbing New York TRACON
05:00PM 40.6167 -73.6333 57° Northeast 286 329 12,900 2,880 Climbing New York TRACON
05:01PM 40.6500 -73.5500 62° Northeast 304 350 15,500 2,100 Climbing New York TRACON
05:02PM 40.7167 -73.5167 21° North 278 320 17,000 840 Climbing New York TRACON
05:03PM 41.1303 -74.1473 327° Northwest  Level FlightAware Approximate
05:03PM 40.8167 -73.5000 North 352 405 17,100  Level New York TRACON
05:04PM 40.9167 -73.5333 346° North 403 464 17,100  Level New York TRACON
05:05PM 40.9833 -73.6333 311° West 361 415 17,100  Level New York TRACON
05:06PM 41.0500 -73.7500 307° West 355 409 17,100  Level New York TRACON
05:08PM 41.1808 -73.9717 308° West 357 411 17,100 -60 Level New York Center
05:10PM 41.2403 -74.0739 308° West 357 411 17,000  Descending New York Center
05:10PM 41.2919 -74.1619 308° West 326 375 17,100  Climbing New York Center
05:12PM 41.3394 -74.2472 307° West 302 348 17,100 120 Level New York Center
05:13PM 41.3850 -74.3242 308° West 291 335 17,400 1,320 Climbing New York Center
05:13PM 41.4344 -74.4125 307° West 296 341 19,700 2,220 Climbing New York Center
05:14PM 41.4772 -74.5119 300° West 296 341 21,900 2,160 Climbing New York Center
05:15PM 41.5197 -74.6139 299° West 309 356 24,100 2,040 Climbing New York Center
05:16PM 41.5642 -74.7219 299° West 321 369 26,000 1,800 Climbing New York Center
05:17PM 41.6103 -74.8300 300° West 327 376 27,800 960 Climbing New York Center
05:19PM 41.6567 -74.9383 300° West 338 389 28,000 60 Climbing New York Center
05:20PM 41.7047 -75.0525 299° West 344 396 28,000 -120 Level New York Center
05:20PM 41.7506 -75.1611 300° West 344 396 27,800 -960 Descending New York Center
05:22PM 41.7967 -75.2669 300° West 339 390 26,100 -900 Descending New York Center
05:23PM 41.8422 -75.3786 299° West 339 390 26,000 -60 Descending New York Center
05:23PM 41.8881 -75.4878 299° West 339 390 26,000  Level New York Center
05:25PM 41.9336 -75.5942 300° West 339 390 26,000  Level New York Center
05:26PM 41.9789 -75.7061 299° West 339 390 26,000  Level New York Center
05:26PM 42.0244 -75.8128 300° West 339 390 26,000  Level New York Center
05:27PM 42.0681 -75.9167 300° West 339 390 26,000  Level New York Center
05:29PM 42.1131 -76.0292 298° West 339 390 26,000  Level New York Center
05:29PM 42.1558 -76.1389 298° West 339 390 26,000  Level New York Center
05:30PM 42.1672 -76.2603 277° West 332 382 26,000  Level New York Center
05:31PM 42.1756 -76.3897 275° West 332 382 26,000  Level New York Center
05:32PM 42.1878 -76.5250 277° West 337 388 26,000  Level New York Center
05:34PM 42.1969 -76.6378 276° West 337 388 26,000  Level New York Center
05:34PM 42.2050 -76.7672 275° West 342 394 26,000  Level New York Center
05:35PM 42.2161 -76.9103 276° West 342 394 26,000  Level Cleveland Center
05:36PM 42.2239 -77.0247 275° West 348 400 26,000  Level Cleveland Center
05:37PM 42.2342 -77.1558 276° West 348 400 26,000  Level Cleveland Center
05:38PM 42.2425 -77.3014 274° West 371 427 26,000  Level Cleveland Center
05:39PM 42.2550 -77.4522 276° West 392 451 26,000  Level Cleveland Center
05:40PM 42.2653 -77.6033 275° West 406 467 26,000  Level Cleveland Center
05:41PM 42.2775 -77.7572 276° West 406 467 26,000  Level Cleveland Center
05:42PM 42.2878 -77.9222 275° West 406 467 26,000  Level Cleveland Center
05:43PM 42.2975 -78.0736 275° West 406 467 26,000  Level Cleveland Center
05:44PM 42.3089 -78.2247 276° West 406 467 26,000  Level Cleveland Center
05:45PM 42.3183 -78.3789 275° West 406 467 26,000  Level Cleveland Center
05:46PM 42.3275 -78.5331 275° West 406 467 26,000  Level Cleveland Center
05:47PM 42.3361 -78.6872 274° West 406 467 26,000  Level Cleveland Center
05:48PM 42.3469 -78.8442 275° West 406 467 26,000  Level Cleveland Center
05:49PM 42.3533 -78.9958 273° West 411 473 26,000  Level Cleveland Center
05:50PM 42.3617 -79.1500 274° West 411 473 26,000  Level Cleveland Center
05:51PM 42.3717 -79.2933 275° West 424 488 26,000  Level Cleveland Center
05:52PM 42.3797 -79.4475 274° West 424 488 26,000  Level Cleveland Center
05:53PM 42.3894 -79.6022 275° West 424 488 26,000  Level Cleveland Center
05:54PM 42.3989 -79.7622 275° West 424 488 26,000  Level Cleveland Center
05:55PM 42.4061 -79.9167 274° West 424 488 26,000  Level Cleveland Center
05:56PM 42.4133 -80.0797 273° West 431 496 26,000  Level Cleveland Center
05:57PM 42.4200 -80.2344 273° West 431 496 26,000 -480 Level Cleveland Center
05:58PM 42.4289 -80.3947 274° West 426 490 25,100 -1,260 Descending Cleveland Center
05:59PM 42.4372 -80.5522 274° West 421 484 23,500 -1,500 Descending Cleveland Center
06:00PM 42.4433 -80.7097 273° West 421 484 22,100 -780 Descending Cleveland Center
06:01PM 42.4514 -80.8675 274° West 421 484 22,000 -60 Descending Cleveland Center
06:02PM 42.4553 -81.0194 272° West 421 484 22,000  Level Cleveland Center
06:03PM 42.4608 -81.1742 273° West 421 484 22,000 -180 Level Cleveland Center
06:04PM 42.4681 -81.3403 273° West 421 484 21,700 -1,200 Descending Cleveland Center
06:05PM 42.4733 -81.4867 273° West 401 461 19,700 -1,860 Descending Cleveland Center
06:06PM 42.4786 -81.6164 273° West 371 427 18,000 -1,380 Descending Cleveland Center
06:07PM 42.4817 -81.7317 272° West 331 381 17,000 -900 Descending Cleveland Center
06:08PM 42.4847 -81.8219 273° West 300 345 16,200 -900 Descending Cleveland Center
06:09PM 42.4878 -81.9233 272° West 283 326 15,300 -900 Descending Cleveland Center
06:10PM 42.4928 -82.0250 274° West 273 314 14,400 -900 Descending Cleveland Center
06:11PM 42.4936 -82.1233 271° West 273 314 13,500 -900 Descending Cleveland Center
06:12PM 42.4964 -82.2222 272° West 273 314 12,600 -780 Descending Cleveland Center
06:13PM 42.4992 -82.3181 272° West 273 314 12,000 -300 Descending Cleveland Center
06:14PM 42.5019 -82.4136 272° West 268 308 12,000  Level Cleveland Center
06:15PM 42.5053 -82.4589 276° West 256 295 12,000  Level Cleveland Center
06:15PM 42.5044 -82.5125 269° West 268 308 12,000  Level Cleveland Center
06:16PM 42.4994 -82.5686 263° West 261 300 12,000 -420 Level Cleveland Center
06:16PM 42.4883 -82.6019 246° West 263 303 11,600 -1,680 Descending Cleveland Center
06:17PM 42.4706 -82.6578 247° West 253 291 10,300 -1,920 Descending Cleveland Center
06:17PM 42.4556 -82.6881 236° Southwest 258 297 9,700 -1,320 Descending Cleveland Center
06:18PM 42.4378 -82.7467 248° West 257 296 9,000 -720 Descending Cleveland Center
06:18PM 42.4289 -82.7744 247° West 258 297 9,000 -540 Level Cleveland Center
06:19PM 42.4233 -82.8392 263° West 240 276 8,500 -720 Descending Cleveland Center
06:19PM 42.4208 -82.8642 262° West 249 287 8,300 -1,020 Descending Cleveland Center
06:20PM 42.4556 -82.9078 317° Northwest 221 254 7,500 -1,140 Descending Cleveland Center
06:20PM 42.4633 -82.9250 301° West 199 229 7,200 -1,020 Descending Cleveland Center
06:21PM 42.4894 -82.9767 304° West 207 238 6,400 -1,020 Descending Cleveland Center
06:21PM 42.4933 -82.9908 290° West 199 229 6,200 -420 Descending Cleveland Center
06:22PM 42.5172 -83.0508 298° West 206 237 6,000 -240 Descending Cleveland Center
06:22PM 42.5189 -83.0594 285° West 204 235 6,000  Level Cleveland Center
06:23PM 42.5014 -83.1067 243° Southwest 165 190 6,000  Level Cleveland Center
06:24PM 42.4689 -83.1531 226° Southwest 167 192 6,000  Level Cleveland Center
06:25PM 42.4244 -83.1822 206° Southwest 168 193 6,000 -780 Level Cleveland Center
06:26PM 42.3864 -83.2144 212° Southwest 162 186 4,500 -1,200 Descending Cleveland Center
06:27PM 42.3461 -83.2408 206° Southwest 167 192 3,600 -900 Descending Cleveland Center
06:28PM 42.3097 -83.2758 215° Southwest 175 201 2,800 -900 Descending Cleveland Center